sensor_id;sensor_type;location;lat;lon;timestamp;P1;P2;P0
47709;PMS7003;33473;51.640;5.892;2023-04-24T00:10:50;2.4;5.35;3.82
47709;PMS7003;33473;51.640;5.892;2023-04-24T00:24:10;5.89;8.51;5.79
47709;PMS7003;33473;51.640;5.892;2023-04-24T00:37:29;9.13;11.56;7.64
47709;PMS7003;33473;51.640;5.892;2023-04-24T00:50:49;9.97;12.33;8.84
47709;PMS7003;33473;51.640;5.892;2023-04-24T01:04:09;13.33;15.27;10.15
47709;PMS7003;33473;51.640;5.892;2023-04-24T01:17:28;14.89;16.03;10.91
47709;PMS7003;33473;51.640;5.892;2023-04-24T01:30:48;14.77;16.47;10.8
47709;PMS7003;33473;51.640;5.892;2023-04-24T01:44:08;16.45;17.67;11.56
47709;PMS7003;33473;51.640;5.892;2023-04-24T01:57:27;16.81;17.67;11.45
47709;PMS7003;33473;51.640;5.892;2023-04-24T02:10:47;18.01;18.32;12.22
47709;PMS7003;33473;51.640;5.892;2023-04-24T02:24:07;21.61;19.63;12.65
47709;PMS7003;33473;51.640;5.892;2023-04-24T02:37:26;23.17;20.61;13.31
47709;PMS7003;33473;51.640;5.892;2023-04-24T02:50:46;24.37;22.03;13.74
47709;PMS7003;33473;51.640;5.892;2023-04-24T03:04:06;24.01;21.48;13.53
47709;PMS7003;33473;51.640;5.892;2023-04-24T03:17:25;22.09;20.61;13.2
47709;PMS7003;33473;51.640;5.892;2023-04-24T03:30:45;21.61;20.5;13.09
47709;PMS7003;33473;51.640;5.892;2023-04-24T03:44:04;23.41;21.05;13.31
47709;PMS7003;33473;51.640;5.892;2023-04-24T03:57:24;21.25;20.28;13.2
47709;PMS7003;33473;51.640;5.892;2023-04-24T04:10:44;19.45;19.08;12.54
47709;PMS7003;33473;51.640;5.892;2023-04-24T04:24:03;19.21;18.54;12.11
47709;PMS7003;33473;51.640;5.892;2023-04-24T04:37:23;18.25;18.21;12.11
47709;PMS7003;33473;51.640;5.892;2023-04-24T04:50:43;17.17;17.45;11.67
47709;PMS7003;33473;51.640;5.892;2023-04-24T05:04:02;14.53;16.03;10.69
47709;PMS7003;33473;51.640;5.892;2023-04-24T05:17:22;13.81;14.94;10.26
47709;PMS7003;33473;51.640;5.892;2023-04-24T05:30:42;12.13;13.42;9.17
47709;PMS7003;33473;51.640;5.892;2023-04-24T05:44:01;11.65;13.74;9.38
47709;PMS7003;33473;51.640;5.892;2023-04-24T05:57:21;8.65;10.91;7.86
47709;PMS7003;33473;51.640;5.892;2023-04-24T06:10:41;7.81;10.15;7.2
47709;PMS7003;33473;51.640;5.892;2023-04-24T06:24:00;5.65;7.64;5.57
47709;PMS7003;33473;51.640;5.892;2023-04-24T06:37:20;6.13;8.08;5.68
47709;PMS7003;33473;51.640;5.892;2023-04-24T06:50:40;3.12;5.24;3.82
47709;PMS7003;33473;51.640;5.892;2023-04-24T07:04:00;0.01;2.41;1.86
47709;PMS7003;33473;51.640;5.892;2023-04-24T07:17:19;0.01;1.86;1.32
47709;PMS7003;33473;51.640;5.892;2023-04-24T07:30:39;0.01;2.52;2.19
47709;PMS7003;33473;51.640;5.892;2023-04-24T07:43:59;4.33;6.44;4.37
47709;PMS7003;33473;51.640;5.892;2023-04-24T07:57:18;12.13;14.07;8.51
47709;PMS7003;33473;51.640;5.892;2023-04-24T08:10:38;15.73;17.12;9.71
47709;PMS7003;33473;51.640;5.892;2023-04-24T08:23:58;15.73;16.47;9.6
47709;PMS7003;33473;51.640;5.892;2023-04-24T08:37:17;15.49;15.16;8.51
47709;PMS7003;33473;51.640;5.892;2023-04-24T08:50:37;14.41;15.49;9.06
47709;PMS7003;33473;51.640;5.892;2023-04-24T09:03:57;7.21;8.73;4.8
47709;PMS7003;33473;51.640;5.892;2023-04-24T09:17:16;7.57;8.18;4.91
47709;PMS7003;33473;51.640;5.892;2023-04-24T09:30:36;7.57;7.31;4.7
47709;PMS7003;33473;51.640;5.892;2023-04-24T09:43:56;9.37;6.66;3.82
47709;PMS7003;33473;51.640;5.892;2023-04-24T09:57:15;3.6;6.22;3.82
47709;PMS7003;33473;51.640;5.892;2023-04-24T10:10:35;3.0;5.46;3.61
47709;PMS7003;33473;51.640;5.892;2023-04-24T10:23:55;1.56;4.15;2.52
47709;PMS7003;33473;51.640;5.892;2023-04-24T10:37:14;2.52;4.8;2.95
47709;PMS7003;33473;51.640;5.892;2023-04-24T10:50:34;2.16;4.7;2.84
47709;PMS7003;33473;51.640;5.892;2023-04-24T11:03:54;0.0;3.06;2.08
47709;PMS7003;33473;51.640;5.892;2023-04-24T11:17:13;2.04;4.26;2.84
47709;PMS7003;33473;51.640;5.892;2023-04-24T11:30:33;0.01;2.73;2.3
47709;PMS7003;33473;51.640;5.892;2023-04-24T11:43:53;0.01;1.97;1.64
47709;PMS7003;33473;51.640;5.892;2023-04-24T11:57:12;0.72;3.17;2.52
47709;PMS7003;33473;51.640;5.892;2023-04-24T12:10:32;0.01;2.19;1.75
47709;PMS7003;33473;51.640;5.892;2023-04-24T12:23:52;0.01;3.06;1.97
47709;PMS7003;33473;51.640;5.892;2023-04-24T12:37:11;0.84;3.71;2.84
47709;PMS7003;33473;51.640;5.892;2023-04-24T12:50:31;1.2;3.5;2.62
47709;PMS7003;33473;51.640;5.892;2023-04-24T13:03:51;1.2;3.17;2.3
47709;PMS7003;33473;51.640;5.892;2023-04-24T13:17:10;1.92;4.7;3.39
47709;PMS7003;33473;51.640;5.892;2023-04-24T13:30:30;1.08;3.39;2.52
47709;PMS7003;33473;51.640;5.892;2023-04-24T13:43:50;0.72;3.39;2.41
47709;PMS7003;33473;51.640;5.892;2023-04-24T13:57:09;0.48;3.5;2.52
47709;PMS7003;33473;51.640;5.892;2023-04-24T14:10:29;0.01;2.84;2.3
47709;PMS7003;33473;51.640;5.892;2023-04-24T14:23:49;1.8;3.71;2.84
47709;PMS7003;33473;51.640;5.892;2023-04-24T14:37:08;0.0;3.28;2.3
47709;PMS7003;33473;51.640;5.892;2023-04-24T14:50:28;1.44;4.37;3.39
47709;PMS7003;33473;51.640;5.892;2023-04-24T15:03:48;2.16;4.7;3.61
47709;PMS7003;33473;51.640;5.892;2023-04-24T15:17:07;2.52;5.35;3.82
47709;PMS7003;33473;51.640;5.892;2023-04-24T15:30:27;1.56;4.37;2.73
47709;PMS7003;33473;51.640;5.892;2023-04-24T15:43:47;1.56;3.82;2.73
47709;PMS7003;33473;51.640;5.892;2023-04-24T15:57:06;3.24;5.46;3.28
47709;PMS7003;33473;51.640;5.892;2023-04-24T16:10:26;2.64;5.57;3.39
47709;PMS7003;33473;51.640;5.892;2023-04-24T16:23:46;6.49;6.11;3.93
47709;PMS7003;33473;51.640;5.892;2023-04-24T16:37:05;3.85;5.02;3.39
47709;PMS7003;33473;51.640;5.892;2023-04-24T16:50:25;3.12;4.26;2.95
47709;PMS7003;33473;51.640;5.892;2023-04-24T17:03:45;3.0;5.13;3.5
47709;PMS7003;33473;51.640;5.892;2023-04-24T17:17:04;4.45;5.9;3.93
47709;PMS7003;33473;51.640;5.892;2023-04-24T17:30:24;4.93;6.66;4.37
47709;PMS7003;33473;51.640;5.892;2023-04-24T17:43:44;5.53;6.88;4.48
47709;PMS7003;33473;51.640;5.892;2023-04-24T17:57:03;5.05;5.68;3.61
47709;PMS7003;33473;51.640;5.892;2023-04-24T18:10:23;3.85;6.0;3.5
47709;PMS7003;33473;51.640;5.892;2023-04-24T18:23:43;4.57;5.9;3.82
47709;PMS7003;33473;51.640;5.892;2023-04-24T18:37:02;9.01;6.44;3.93
47709;PMS7003;33473;51.640;5.892;2023-04-24T18:50:22;4.81;7.09;4.37
47709;PMS7003;33473;51.640;5.892;2023-04-24T19:03:42;4.33;6.88;4.26
47709;PMS7003;33473;51.640;5.892;2023-04-24T19:17:01;5.05;6.66;4.37
47709;PMS7003;33473;51.640;5.892;2023-04-24T19:30:21;6.37;8.08;4.48
47709;PMS7003;33473;51.640;5.892;2023-04-24T19:43:41;4.45;7.09;4.59
47709;PMS7003;33473;51.640;5.892;2023-04-24T19:57:00;6.85;7.75;4.59
47709;PMS7003;33473;51.640;5.892;2023-04-24T20:10:20;8.29;7.31;4.37
47709;PMS7003;33473;51.640;5.892;2023-04-24T20:23:40;9.49;8.51;5.24
47709;PMS7003;33473;51.640;5.892;2023-04-24T20:36:59;7.33;8.62;4.8
47709;PMS7003;33473;51.640;5.892;2023-04-24T20:50:19;6.85;8.51;5.13
47709;PMS7003;33473;51.640;5.892;2023-04-24T21:03:39;8.05;9.17;5.13
47709;PMS7003;33473;51.640;5.892;2023-04-24T21:16:58;9.37;8.62;5.46
47709;PMS7003;33473;51.640;5.892;2023-04-24T21:30:18;9.13;9.82;5.68
47709;PMS7003;33473;51.640;5.892;2023-04-24T21:43:38;8.65;8.84;5.35
47709;PMS7003;33473;51.640;5.892;2023-04-24T21:56:58;6.97;8.51;5.13
47709;PMS7003;33473;51.640;5.892;2023-04-24T22:10:17;13.69;9.82;5.68
47709;PMS7003;33473;51.640;5.892;2023-04-24T22:36:57;8.05;8.73;4.8
47709;PMS7003;33473;51.640;5.892;2023-04-24T22:50:16;8.05;9.38;4.91
47709;PMS7003;33473;51.640;5.892;2023-04-24T23:03:36;7.21;9.17;5.24
47709;PMS7003;33473;51.640;5.892;2023-04-24T23:16:56;13.81;9.06;5.02
47709;PMS7003;33473;51.640;5.892;2023-04-24T23:30:15;8.65;8.18;4.8
47709;PMS7003;33473;51.640;5.892;2023-04-24T23:43:35;6.37;8.62;4.8
47709;PMS7003;33473;51.640;5.892;2023-04-24T23:56:55;7.69;8.95;4.48
